createdAt,value
2023-01-03T00:03:01.511Z,68.98
2023-01-03T00:06:05.190Z,68.44
2023-01-03T00:09:09.560Z,67.79
2023-01-03T00:12:30.761Z,68.20
2023-01-03T00:15:34.221Z,68.27
2023-01-03T00:18:36.879Z,67.07
2023-01-03T00:21:39.498Z,67.47
2023-01-03T00:24:42.289Z,67.62
2023-01-03T00:27:43.763Z,67.43
2023-01-03T00:30:46.612Z,67.19
2023-01-03T00:33:49.289Z,67.48
2023-01-03T00:36:52.597Z,66.83
2023-01-03T00:39:53.957Z,66.96
2023-01-03T00:43:14.845Z,66.60
2023-01-03T00:46:19.116Z,66.75
2023-01-03T00:49:21.711Z,65.94
2023-01-03T00:52:24.960Z,66.09
2023-01-03T00:55:26.243Z,66.39
2023-01-03T00:58:30.941Z,64.51
2023-01-03T01:01:42.281Z,63.03
2023-01-03T01:04:48.638Z,63.32
2023-01-03T01:07:52.063Z,63.82
2023-01-03T01:11:03.205Z,64.06
2023-01-03T01:14:20.310Z,63.21
2023-01-03T01:17:23.021Z,63.53
2023-01-03T01:20:25.815Z,63.60
2023-01-03T01:23:29.044Z,64.09
2023-01-03T01:26:30.406Z,62.48
2023-01-03T01:29:33.200Z,63.49
2023-01-03T01:32:35.864Z,63.89
2023-01-03T01:35:38.412Z,63.80
2023-01-03T01:38:40.377Z,63.92
2023-01-03T01:42:02.951Z,63.17
2023-01-03T01:45:07.286Z,63.58
2023-01-03T01:48:14.869Z,63.38
2023-01-03T01:51:19.629Z,62.89
2023-01-03T01:54:22.901Z,64.00
2023-01-03T01:57:25.882Z,63.48
2023-01-03T02:00:29.570Z,63.35
2023-01-03T02:03:30.982Z,63.99
2023-01-03T02:06:34.830Z,62.30
2023-01-03T02:09:36.860Z,62.65
2023-01-03T02:13:02.724Z,63.08
2023-01-03T02:16:21.596Z,63.21
2023-01-03T02:19:48.964Z,63.65
2023-01-03T02:23:41.506Z,63.38
2023-01-03T02:26:57.246Z,62.90
2023-01-03T02:30:31.063Z,63.03
2023-01-03T02:37:14.534Z,63.15
2023-01-03T02:40:22.157Z,63.12
2023-01-03T02:43:33.548Z,62.98
2023-01-03T02:46:44.766Z,62.66
2023-01-03T02:53:14.775Z,62.76
2023-01-03T02:56:22.334Z,63.58
2023-01-03T02:59:33.997Z,64.23
2023-01-03T03:02:39.573Z,65.11
2023-01-03T03:05:49.710Z,64.79
2023-01-03T03:08:52.386Z,65.26
2023-01-03T03:12:12.724Z,66.38
2023-01-03T03:15:18.452Z,65.82
2023-01-03T03:18:25.146Z,65.54
2023-01-03T03:21:52.847Z,64.43
2023-01-03T03:24:57.202Z,64.60
2023-01-03T03:28:20.670Z,64.84
2023-01-03T03:34:57.275Z,63.91
2023-01-03T03:38:00.318Z,64.00
2023-01-03T03:41:29.989Z,62.45
2023-01-03T03:44:54.117Z,64.48
2023-01-03T03:48:05.560Z,64.89
2023-01-03T03:51:14.230Z,63.50
2023-01-03T03:54:22.419Z,65.08
2023-01-03T03:57:28.208Z,63.50
2023-01-03T04:00:35.613Z,63.72
2023-01-03T04:03:40.708Z,64.93
2023-01-03T04:06:47.053Z,64.62
2023-01-03T04:09:49.879Z,63.85
2023-01-03T04:12:52.186Z,63.67
2023-01-03T04:15:54.889Z,62.77
2023-01-03T04:18:57.553Z,64.00
2023-01-03T04:21:59.558Z,63.68
2023-01-03T04:25:02.464Z,65.52
2023-01-03T04:28:04.107Z,64.97
2023-01-03T04:31:06.817Z,64.95
2023-01-03T04:34:09.451Z,66.48
2023-01-03T04:37:11.438Z,66.04
2023-01-03T04:40:14.052Z,67.01
2023-01-03T04:43:33.423Z,65.28
2023-01-03T04:49:57.887Z,67.37
2023-01-03T04:52:59.970Z,66.26
2023-01-03T04:56:02.552Z,66.45
2023-01-03T04:59:04.675Z,66.62
2023-01-03T05:02:06.205Z,65.84
2023-01-03T05:05:10.064Z,66.49
2023-01-03T05:08:12.675Z,65.33
2023-01-03T05:11:14.662Z,66.43
2023-01-03T05:14:16.045Z,66.75
2023-01-03T05:17:17.742Z,66.62
2023-01-03T05:20:37.773Z,67.51
2023-01-03T05:23:57.967Z,66.87
2023-01-03T05:27:02.550Z,67.08
2023-01-03T05:30:04.856Z,67.34
2023-01-03T05:33:08.039Z,67.65
2023-01-03T05:36:10.326Z,67.67
2023-01-03T05:39:13.675Z,67.47
2023-01-03T05:42:15.057Z,66.48
2023-01-03T05:45:16.656Z,67.10
2023-01-03T05:48:20.262Z,66.85
2023-01-03T05:51:22.845Z,67.51
2023-01-03T05:54:25.215Z,67.91
2023-01-03T05:57:30.522Z,67.92
2023-01-03T06:00:36.377Z,67.79
2023-01-03T06:03:37.722Z,68.04
2023-01-03T06:06:39.031Z,68.63
2023-01-03T06:09:41.672Z,68.66
2023-01-03T06:12:44.202Z,68.59
2023-01-03T06:16:05.916Z,68.41
2023-01-03T06:19:09.018Z,68.29
2023-01-03T06:22:11.606Z,68.53
2023-01-03T06:25:14.020Z,68.31
2023-01-03T06:28:15.368Z,68.65
2023-01-03T06:31:17.649Z,68.96
2023-01-03T06:34:20.301Z,69.30
2023-01-03T06:37:21.693Z,69.14
2023-01-03T06:40:23.707Z,68.82
2023-01-03T06:43:25.610Z,69.08
2023-01-03T06:46:45.198Z,67.30
2023-01-03T06:50:20.566Z,67.60
2023-01-03T06:53:23.206Z,67.87
2023-01-03T06:56:26.792Z,68.95
2023-01-03T06:59:28.207Z,69.28
2023-01-03T07:02:30.920Z,70.31
2023-01-03T07:05:33.639Z,70.92
2023-01-03T07:08:35.385Z,70.47
2023-01-03T07:11:41.196Z,71.18
2023-01-03T07:14:43.470Z,71.45
2023-01-03T07:17:44.776Z,71.58
2023-01-03T07:20:47.435Z,71.25
2023-01-03T07:23:49.325Z,70.18
2023-01-03T07:26:51.343Z,72.03
2023-01-03T07:29:53.888Z,71.65
2023-01-03T07:32:56.429Z,72.38
2023-01-03T07:36:05.997Z,72.74
2023-01-03T07:39:10.803Z,72.69
2023-01-03T07:42:31.122Z,73.36
2023-01-03T07:45:32.745Z,72.63
2023-01-03T07:48:34.349Z,72.82
2023-01-03T07:51:36.955Z,72.70
2023-01-03T07:54:38.264Z,72.91
2023-01-03T07:57:40.253Z,72.31
2023-01-03T08:00:43.411Z,72.93
2023-01-03T08:03:45.368Z,72.81
2023-01-03T08:06:48.031Z,72.54
2023-01-03T08:10:07.789Z,72.31
2023-01-03T08:13:18.898Z,72.25
2023-01-03T08:16:21.623Z,72.71
2023-01-03T08:19:23.822Z,72.26
2023-01-03T08:22:26.398Z,72.64
2023-01-03T08:25:27.687Z,72.19
2023-01-03T08:28:31.312Z,72.72
2023-01-03T08:31:39.364Z,71.33
2023-01-03T08:34:43.555Z,71.74
2023-01-03T08:37:45.608Z,71.63
2023-01-03T08:40:47.720Z,70.63
2023-01-03T08:43:51.028Z,70.31
2023-01-03T08:46:54.197Z,69.84
2023-01-03T08:49:56.573Z,69.96
2023-01-03T08:52:58.917Z,70.90
2023-01-03T08:56:03.421Z,70.31
2023-01-03T08:59:05.466Z,70.23
2023-01-03T09:02:06.893Z,70.75
2023-01-03T09:05:09.060Z,70.25
2023-01-03T09:08:10.379Z,70.03
2023-01-03T09:11:11.798Z,69.65
2023-01-03T09:14:13.896Z,68.71
2023-01-03T09:17:15.481Z,68.01
2023-01-03T09:20:19.002Z,67.27
2023-01-03T09:23:20.597Z,67.34
2023-01-03T09:26:22.076Z,66.21
2023-01-03T09:29:24.243Z,65.77
2023-01-03T09:32:25.685Z,65.28
2023-01-03T09:35:27.071Z,64.29
2023-01-03T09:42:08.951Z,63.94
2023-01-03T09:45:16.574Z,63.63
2023-01-03T09:48:20.547Z,64.08
2023-01-03T09:51:43.040Z,62.14
2023-01-03T09:55:03.395Z,61.57
2023-01-03T09:58:30.078Z,61.90
2023-01-03T10:02:00.576Z,60.50
2023-01-03T10:05:33.174Z,58.77
2023-01-03T10:08:45.947Z,57.92
2023-01-03T10:12:01.255Z,56.22
2023-01-03T10:15:18.824Z,57.03
2023-01-03T10:18:37.654Z,57.10
2023-01-03T10:21:49.988Z,57.77
2023-01-03T10:24:58.859Z,57.11
2023-01-03T10:28:06.140Z,59.35
2023-01-03T10:31:26.080Z,60.79
2023-01-03T10:34:29.399Z,60.05
2023-01-03T10:37:30.745Z,61.16
2023-01-03T10:40:42.519Z,61.58
2023-01-03T10:43:45.194Z,62.22
2023-01-03T10:46:51.190Z,61.80
2023-01-03T10:49:59.543Z,62.02
2023-01-03T10:53:07.591Z,63.06
2023-01-03T10:56:16.424Z,61.98
2023-01-03T10:59:23.951Z,63.46
2023-01-03T11:02:26.730Z,63.02
2023-01-03T11:05:28.838Z,62.21
2023-01-03T11:08:41.966Z,61.81
2023-01-03T11:11:43.663Z,62.35
2023-01-03T11:14:56.826Z,62.29
2023-01-03T11:18:00.981Z,61.59
2023-01-03T11:21:12.781Z,61.39
2023-01-03T11:24:26.474Z,61.89
2023-01-03T11:27:53.682Z,62.72
2023-01-03T11:31:04.363Z,62.51
2023-01-03T11:34:24.438Z,60.35
2023-01-03T11:37:38.251Z,59.33
2023-01-03T11:40:47.995Z,59.28
2023-01-03T11:44:07.398Z,59.72
2023-01-03T11:47:21.951Z,59.54
2023-01-03T11:50:29.176Z,59.37
2023-01-03T11:53:35.615Z,58.97
2023-01-03T11:56:41.344Z,58.50
2023-01-03T11:59:56.067Z,57.90
2023-01-03T12:03:18.334Z,58.92
2023-01-03T12:06:29.078Z,58.02
2023-01-03T12:09:38.407Z,58.56
2023-01-03T12:13:00.089Z,58.88
2023-01-03T12:16:04.729Z,59.16
2023-01-03T12:19:15.479Z,59.13
2023-01-03T12:22:24.782Z,59.06
2023-01-03T12:25:30.453Z,58.91
2023-01-03T12:28:38.265Z,59.50
2023-01-03T12:31:44.361Z,58.73
2023-01-03T12:34:52.923Z,58.93
2023-01-03T12:37:57.446Z,57.61
2023-01-03T12:41:05.290Z,57.96
2023-01-03T12:44:13.899Z,57.22
2023-01-03T12:47:26.103Z,58.01
2023-01-03T12:50:33.654Z,57.72
2023-01-03T12:53:40.748Z,56.60
2023-01-03T12:57:08.823Z,56.13
2023-01-03T13:00:31.742Z,56.30
2023-01-03T13:03:38.289Z,56.43
2023-01-03T13:06:45.363Z,55.75
2023-01-03T13:09:58.903Z,55.76
2023-01-03T13:13:04.675Z,55.74
2023-01-03T13:16:38.245Z,55.83
2023-01-03T13:19:55.677Z,56.96
2023-01-03T13:22:59.086Z,57.43
2023-01-03T13:26:20.484Z,57.21
2023-01-03T13:29:46.958Z,57.20
2023-01-03T13:32:51.587Z,56.41
2023-01-03T13:36:01.947Z,56.59
2023-01-03T13:39:35.329Z,57.66
2023-01-03T13:42:39.883Z,57.60
2023-01-03T13:46:00.015Z,57.89
2023-01-03T13:49:04.358Z,57.65
2023-01-03T13:52:38.804Z,57.46
2023-01-03T13:55:49.135Z,57.86
2023-01-03T13:59:01.933Z,58.60
2023-01-03T14:02:38.309Z,58.68
2023-01-03T14:06:19.819Z,59.27
2023-01-03T14:09:45.455Z,59.22
2023-01-03T14:13:08.736Z,58.87
2023-01-03T14:16:18.857Z,59.43
2023-01-03T14:19:26.230Z,59.89
2023-01-03T14:22:36.555Z,60.46
2023-01-03T14:25:39.863Z,59.57
2023-01-03T14:28:42.749Z,60.65
2023-01-03T14:31:47.477Z,60.30
2023-01-03T14:34:50.844Z,60.33
2023-01-03T14:37:52.157Z,60.68
2023-01-03T14:40:55.075Z,61.37
2023-01-03T14:44:01.072Z,61.25
2023-01-03T14:47:07.524Z,61.73
2023-01-03T14:50:14.801Z,62.24
2023-01-03T14:53:17.268Z,62.53
2023-01-03T14:56:23.084Z,62.41
2023-01-03T14:59:28.046Z,62.54
2023-01-03T15:02:33.943Z,62.90
2023-01-03T15:05:38.665Z,63.02
2023-01-03T15:08:43.003Z,63.31
2023-01-03T15:11:57.383Z,64.29
2023-01-03T15:15:07.546Z,64.39
2023-01-03T15:18:12.583Z,64.22
2023-01-03T15:21:20.953Z,64.64
2023-01-03T15:24:24.375Z,65.25
2023-01-03T15:31:20.694Z,65.19
2023-01-03T15:34:26.105Z,65.49
2023-01-03T15:37:28.090Z,65.76
2023-01-03T15:40:30.947Z,65.29
2023-01-03T15:43:38.628Z,66.30
2023-01-03T15:46:44.750Z,66.14
2023-01-03T15:49:48.851Z,66.87
2023-01-03T15:52:52.067Z,66.86
2023-01-03T15:55:56.682Z,66.97
2023-01-03T16:02:21.734Z,66.60
2023-01-03T16:05:23.594Z,66.58
2023-01-03T16:08:28.758Z,67.22
2023-01-03T16:11:34.408Z,66.75
2023-01-03T16:14:40.566Z,67.14
2023-01-03T16:17:42.044Z,66.82
2023-01-03T16:20:44.024Z,67.73
2023-01-03T16:23:47.585Z,67.76
2023-01-03T16:26:50.660Z,67.84
2023-01-03T16:29:51.962Z,68.05
2023-01-03T16:32:54.524Z,67.45
2023-01-03T16:35:57.406Z,67.97
2023-01-03T16:39:00.210Z,68.66
2023-01-03T16:42:13.689Z,68.73
2023-01-03T16:45:15.520Z,68.25
2023-01-03T16:48:19.355Z,69.19
2023-01-03T16:51:25.433Z,68.96
2023-01-03T16:54:27.525Z,69.33
2023-01-03T16:57:31.089Z,68.96
2023-01-03T17:00:34.774Z,69.89
2023-01-03T17:03:41.578Z,69.62
2023-01-03T17:06:45.442Z,70.13
2023-01-03T17:09:50.770Z,69.74
2023-01-03T17:12:52.215Z,69.02
2023-01-03T17:15:54.487Z,68.63
2023-01-03T17:18:57.015Z,69.46
2023-01-03T17:21:58.356Z,69.91
2023-01-03T17:25:00.463Z,70.21
2023-01-03T17:28:01.828Z,70.91
2023-01-03T17:31:03.307Z,70.79
2023-01-03T17:34:17.042Z,71.69
2023-01-03T17:37:20.986Z,70.40
2023-01-03T17:40:33.165Z,69.89
2023-01-03T17:43:35.349Z,70.56
2023-01-03T17:46:56.419Z,70.42
2023-01-03T17:49:58.982Z,70.57
2023-01-03T17:53:01.607Z,70.59
2023-01-03T17:56:05.083Z,71.07
2023-01-03T17:59:06.451Z,71.07
2023-01-03T18:02:17.211Z,71.62
2023-01-03T18:05:27.020Z,72.38
2023-01-03T18:08:28.972Z,71.88
2023-01-03T18:11:32.754Z,70.87
2023-01-03T18:14:34.097Z,70.60
2023-01-03T18:17:36.668Z,70.42
2023-01-03T18:20:39.256Z,70.06
2023-01-03T18:23:41.345Z,70.40
2023-01-03T18:26:47.238Z,71.06
2023-01-03T18:29:49.604Z,71.03
2023-01-03T18:32:50.959Z,70.93
2023-01-03T18:35:52.971Z,71.06
2023-01-03T18:39:04.129Z,71.74
2023-01-03T18:42:20.891Z,71.35
2023-01-03T18:45:23.622Z,71.70
2023-01-03T18:48:24.965Z,71.68
2023-01-03T18:51:29.908Z,71.19
2023-01-03T18:54:35.537Z,71.65
2023-01-03T18:57:38.909Z,71.91
2023-01-03T19:00:40.182Z,71.78
2023-01-03T19:03:43.848Z,71.67
2023-01-03T19:06:47.186Z,72.22
2023-01-03T19:09:50.398Z,72.02
2023-01-03T19:12:55.296Z,71.69
2023-01-03T19:15:57.914Z,71.93
2023-01-03T19:19:00.097Z,71.70
2023-01-03T19:22:03.514Z,72.98
2023-01-03T19:25:08.916Z,73.01
2023-01-03T19:28:11.675Z,73.14
2023-01-03T19:31:13.078Z,72.83
2023-01-03T19:34:16.112Z,73.18
2023-01-03T19:37:18.919Z,72.95
2023-01-03T19:40:23.689Z,73.49
2023-01-03T19:43:25.692Z,73.88
2023-01-03T19:46:27.781Z,73.78
2023-01-03T19:49:30.401Z,74.54
2023-01-03T19:52:31.667Z,74.60
2023-01-03T19:55:36.851Z,74.74
2023-01-03T19:58:41.702Z,74.08
2023-01-03T20:02:14.295Z,74.45
2023-01-03T20:05:13.989Z,74.41
2023-01-03T20:08:15.326Z,74.38
2023-01-03T20:11:19.275Z,74.33
2023-01-03T20:14:22.657Z,74.68
2023-01-03T20:17:25.404Z,74.93
2023-01-03T20:20:31.449Z,75.14
2023-01-03T20:23:36.324Z,75.23
2023-01-03T20:26:40.575Z,74.40
2023-01-03T20:29:43.237Z,75.10
2023-01-03T20:32:44.662Z,74.86
2023-01-03T20:39:23.413Z,75.59
2023-01-03T20:42:24.957Z,74.78
2023-01-03T20:45:27.484Z,74.96
2023-01-03T20:48:30.042Z,74.56
2023-01-03T20:51:31.607Z,74.85
2023-01-03T20:54:34.166Z,74.57
2023-01-03T20:57:35.578Z,75.61
2023-01-03T21:00:39.848Z,78.08
2023-01-03T21:03:42.622Z,78.13
2023-01-03T21:06:44.978Z,72.12
2023-01-03T21:09:47.523Z,72.24
2023-01-03T21:12:48.820Z,73.24
2023-01-03T21:15:52.365Z,72.79
2023-01-03T21:18:53.932Z,73.58
2023-01-03T21:21:57.430Z,74.07
2023-01-03T21:25:00.018Z,74.04
2023-01-03T21:28:02.241Z,73.27
2023-01-03T21:31:05.910Z,74.16
2023-01-03T21:34:12.710Z,74.18
2023-01-03T21:37:15.433Z,74.16
2023-01-03T21:40:20.771Z,73.51
2023-01-03T21:43:23.367Z,73.55
2023-01-03T21:46:26.536Z,74.64
2023-01-03T21:49:29.237Z,74.59
2023-01-03T21:52:30.589Z,75.03
2023-01-03T21:55:33.791Z,74.35
2023-01-03T21:58:36.786Z,73.98
2023-01-03T22:02:06.630Z,74.04
2023-01-03T22:05:08.381Z,74.01
2023-01-03T22:08:11.254Z,73.51
2023-01-03T22:11:12.674Z,73.99
2023-01-03T22:14:15.250Z,73.65
2023-01-03T22:17:18.479Z,73.63
2023-01-03T22:20:21.863Z,73.90
2023-01-03T22:23:24.448Z,73.60
2023-01-03T22:26:29.336Z,73.78
2023-01-03T22:29:35.549Z,73.14
2023-01-03T22:32:38.815Z,73.09
2023-01-03T22:35:40.205Z,73.06
2023-01-03T22:38:43.600Z,73.30
2023-01-03T22:41:44.883Z,73.54
2023-01-03T22:44:47.661Z,74.08
2023-01-03T22:47:49.615Z,73.94
2023-01-03T22:50:52.270Z,74.23
2023-01-03T22:53:55.022Z,73.96
2023-01-03T22:56:56.731Z,73.71
2023-01-03T22:59:59.333Z,72.45
2023-01-03T23:03:01.955Z,73.38
2023-01-03T23:06:04.707Z,73.84
2023-01-03T23:09:06.698Z,74.36
2023-01-03T23:12:28.978Z,73.95
2023-01-03T23:15:32.888Z,74.41
2023-01-03T23:18:34.874Z,74.04
2023-01-03T23:21:37.587Z,73.62
2023-01-03T23:24:40.489Z,73.82
2023-01-03T23:27:42.108Z,73.65
2023-01-03T23:30:44.777Z,74.02
2023-01-03T23:33:48.055Z,74.12
2023-01-03T23:36:50.696Z,73.83
2023-01-03T23:39:53.362Z,73.92
2023-01-03T23:42:54.654Z,73.74
2023-01-03T23:45:58.788Z,73.03
2023-01-03T23:49:00.832Z,73.73
2023-01-03T23:52:03.490Z,74.36
2023-01-03T23:55:12.112Z,74.19
2023-01-03T23:58:15.293Z,74.42
